Time;durP1;ratioP1;P1;durP2;ratioP2;P2;SDS_P1;SDS_P2;PMS_P1;PMS_P2;Temp;Humidity;BMP_temperature;BMP_pressure;BME280_temperature;BME280_humidity;BME280_pressure;Samples;Min_cycle;Max_cycle;Signal;HPM_P1;HPM_P2
2023/05/30 04:31:00;;;;;;;8.82;3.65;;;14.20;68.90;;;;;;5603599;23;20134;-77
2023/05/30 04:33:26;;;;;;;13.55;3.90;;;14.20;68.90;;;;;;4950050;28;20102;-78
2023/05/30 04:35:52;;;;;;;12.70;4.20;;;14.20;68.60;;;;;;4954312;29;20121;-78
2023/05/30 04:38:20;;;;;;;10.07;3.70;;;14.10;68.90;;;;;;4954613;29;20042;-77
2023/05/30 04:40:52;;;;;;;10.88;3.63;;;14.20;69.00;;;;;;4953263;29;20122;-78
2023/05/30 04:43:19;;;;;;;14.32;4.20;;;14.10;68.80;;;;;;4954206;29;20023;-78
2023/05/30 04:45:47;;;;;;;11.32;4.35;;;14.20;68.50;;;;;;4965026;28;20212;-78
2023/05/30 04:48:15;;;;;;;10.75;3.55;;;14.20;68.30;;;;;;4936596;29;20485;-78
2023/05/30 04:50:46;;;;;;;12.63;3.60;;;14.20;68.60;;;;;;4954109;29;20035;-77
2023/05/30 04:53:13;;;;;;;16.20;3.92;;;14.10;68.60;;;;;;4936671;29;20423;-78
2023/05/30 04:55:39;;;;;;;13.20;4.07;;;14.20;68.70;;;;;;4918993;29;20039;-78
2023/05/30 04:58:05;;;;;;;10.43;3.42;;;14.20;68.70;;;;;;4934652;29;20058;-76
2023/05/30 05:00:31;;;;;;;11.18;3.30;;;14.20;68.30;;;;;;4931937;29;20062;-76
2023/05/30 05:02:56;;;;;;;10.68;3.78;;;14.30;68.10;;;;;;4929577;29;20678;-76
2023/05/30 05:05:22;;;;;;;9.15;3.40;;;14.30;67.90;;;;;;4956087;29;20055;-76
2023/05/30 05:07:47;;;;;;;7.07;3.33;;;14.40;67.90;;;;;;4953059;29;20103;-78
2023/05/30 05:10:13;;;;;;;12.27;3.50;;;14.40;67.50;;;;;;4949729;29;20931;-78
2023/05/30 05:12:39;;;;;;;9.40;3.88;;;14.50;67.70;;;;;;4957112;29;20038;-78
2023/05/30 05:15:05;;;;;;;8.80;2.90;;;14.40;67.50;;;;;;4940201;29;20523;-76
2023/05/30 05:17:31;;;;;;;10.93;3.40;;;14.50;67.90;;;;;;4930283;29;20500;-78
2023/05/30 05:19:56;;;;;;;10.07;3.30;;;14.50;67.70;;;;;;4934759;29;20154;-78
2023/05/30 05:22:22;;;;;;;10.52;3.42;;;14.50;67.60;;;;;;4961351;29;20030;-77
2023/05/30 05:24:47;;;;;;;11.57;3.55;;;14.40;68.10;;;;;;4938756;29;20127;-77
2023/05/30 05:27:14;;;;;;;11.80;3.58;;;14.40;68.30;;;;;;4951402;28;20577;-78
2023/05/30 05:29:39;;;;;;;12.55;3.80;;;14.40;68.00;;;;;;4957722;29;20565;-77
2023/05/30 05:32:05;;;;;;;9.45;3.15;;;14.50;67.60;;;;;;4954307;29;20101;-77
2023/05/30 05:34:31;;;;;;;12.77;3.33;;;14.50;68.00;;;;;;4946760;28;20379;-77
2023/05/30 05:36:56;;;;;;;9.88;3.35;;;14.50;67.90;;;;;;4941382;29;20035;-78
2023/05/30 05:39:22;;;;;;;12.00;3.85;;;14.50;68.00;;;;;;4923389;29;20028;-77
2023/05/30 05:41:48;;;;;;;13.20;3.15;;;14.50;68.00;;;;;;4930953;29;20035;-77
2023/05/30 05:44:13;;;;;;;7.20;3.10;;;14.50;68.10;;;;;;4943053;29;20035;-77
2023/05/30 05:46:39;;;;;;;8.52;3.40;;;14.60;67.60;;;;;;4939316;29;20040;-77
2023/05/30 05:49:05;;;;;;;10.70;3.45;;;14.70;67.50;;;;;;4923914;29;20024;-75
2023/05/30 05:51:31;;;;;;;14.48;3.90;;;14.70;67.20;;;;;;4941762;29;20027;-75
2023/05/30 05:53:57;;;;;;;10.57;3.30;;;14.80;66.90;;;;;;4924064;29;20035;-75
2023/05/30 05:56:23;;;;;;;13.15;3.92;;;14.80;66.80;;;;;;4924137;29;20090;-75
2023/05/30 05:58:48;;;;;;;10.25;3.33;;;14.80;66.80;;;;;;4956636;29;20402;-75
2023/05/30 06:01:14;;;;;;;11.80;3.80;;;14.80;66.90;;;;;;4943127;29;20549;-75
2023/05/30 06:03:40;;;;;;;9.98;3.40;;;14.80;66.70;;;;;;4959879;28;20026;-75
2023/05/30 06:06:06;;;;;;;9.18;3.47;;;14.90;66.40;;;;;;4928058;29;20039;-75
2023/05/30 06:08:31;;;;;;;10.88;3.08;;;15.00;66.30;;;;;;4941135;29;20039;-75
2023/05/30 06:10:57;;;;;;;10.88;3.30;;;15.00;65.70;;;;;;4933241;29;20036;-75
2023/05/30 06:13:23;;;;;;;10.52;3.17;;;15.00;66.20;;;;;;4940461;29;20538;-75
2023/05/30 06:15:48;;;;;;;11.40;3.25;;;15.00;66.00;;;;;;4923824;29;20399;-74
2023/05/30 06:18:14;;;;;;;12.98;3.50;;;15.10;66.30;;;;;;4941358;29;20086;-75
2023/05/30 06:20:40;;;;;;;10.77;3.30;;;15.10;66.20;;;;;;4941024;29;20562;-75
2023/05/30 06:23:05;;;;;;;8.02;3.05;;;15.20;65.90;;;;;;4941343;29;20036;-74
2023/05/30 06:25:31;;;;;;;13.50;3.20;;;15.30;65.70;;;;;;4940995;29;20197;-75
2023/05/30 06:27:56;;;;;;;9.60;3.20;;;15.30;65.40;;;;;;4940859;29;20039;-75
2023/05/30 06:30:22;;;;;;;10.70;3.13;;;15.30;66.00;;;;;;4940080;29;20023;-74
2023/05/30 06:32:48;;;;;;;11.50;3.20;;;15.30;65.10;;;;;;4944755;28;20046;-75
2023/05/30 06:35:14;;;;;;;9.93;3.00;;;15.30;65.00;;;;;;4942834;29;20035;-75
2023/05/30 06:37:39;;;;;;;10.25;3.60;;;15.30;65.10;;;;;;4959915;29;20019;-74
2023/05/30 06:40:06;;;;;;;12.93;3.60;;;15.40;64.90;;;;;;4958504;29;20454;-75
2023/05/30 06:42:33;;;;;;;9.13;2.80;;;15.50;64.50;;;;;;4940687;29;20020;-75
2023/05/30 06:44:58;;;;;;;11.15;3.10;;;15.60;64.60;;;;;;4948334;28;20042;-75
2023/05/30 06:47:24;;;;;;;10.60;3.30;;;15.70;64.00;;;;;;4976106;28;20107;-75
2023/05/30 06:49:49;;;;;;;9.88;2.70;;;15.80;63.80;;;;;;4940360;29;20052;-74
2023/05/30 06:52:15;;;;;;;9.27;3.28;;;15.80;64.00;;;;;;4940464;29;20577;-74
2023/05/30 06:54:41;;;;;;;9.23;3.25;;;15.80;63.70;;;;;;4955994;29;20042;-74
2023/05/30 06:57:07;;;;;;;7.65;2.63;;;15.80;63.70;;;;;;4956591;29;20020;-75
2023/05/30 06:59:34;;;;;;;12.32;3.08;;;15.90;63.00;;;;;;4940298;29;20031;-74
2023/05/30 07:02:01;;;;;;;10.02;3.33;;;16.00;63.00;;;;;;4940094;29;20030;-74
2023/05/30 07:04:26;;;;;;;8.20;3.17;;;16.10;62.70;;;;;;4941494;29;20039;-75
2023/05/30 07:06:53;;;;;;;11.20;2.80;;;16.10;62.80;;;;;;4958320;29;20035;-75
2023/05/30 07:09:18;;;;;;;6.60;2.97;;;16.20;62.30;;;;;;4945005;29;20047;-74
2023/05/30 07:11:44;;;;;;;9.85;3.42;;;16.20;62.60;;;;;;4954728;29;20164;-75
2023/05/30 07:14:11;;;;;;;11.20;3.40;;;16.30;62.20;;;;;;4958034;29;20091;-75
2023/05/30 07:16:37;;;;;;;10.77;3.10;;;16.30;61.90;;;;;;4951301;29;20020;-75
2023/05/30 07:19:03;;;;;;;11.48;3.22;;;16.50;61.80;;;;;;4953457;29;20113;-76
2023/05/30 07:21:29;;;;;;;8.65;3.22;;;16.70;61.70;;;;;;4941869;29;20090;-75
2023/05/30 07:23:55;;;;;;;7.97;2.78;;;16.80;61.00;;;;;;4958168;29;20034;-76
2023/05/30 07:26:21;;;;;;;9.02;2.97;;;17.20;60.20;;;;;;4958935;29;20031;-76
2023/05/30 07:28:47;;;;;;;8.88;2.65;;;18.40;57.50;;;;;;4958496;29;20504;-76
2023/05/30 07:31:13;;;;;;;8.57;2.83;;;20.20;53.30;;;;;;4958803;29;20079;-76
2023/05/30 07:33:38;;;;;;;9.30;3.42;;;22.60;47.50;;;;;;4957759;28;20031;-76
2023/05/30 07:36:04;;;;;;;10.23;3.38;;;23.80;44.40;;;;;;4958717;29;20095;-76
2023/05/30 07:38:29;;;;;;;8.73;3.35;;;24.80;41.10;;;;;;4957531;29;20051;-76
2023/05/30 07:40:55;;;;;;;9.35;3.15;;;25.70;39.30;;;;;;4958613;28;20407;-74
2023/05/30 07:43:21;;;;;;;10.35;3.35;;;26.90;37.50;;;;;;4941423;29;20406;-74
2023/05/30 07:45:46;;;;;;;7.82;3.13;;;28.30;35.70;;;;;;4962372;28;20460;-74
2023/05/30 07:48:12;;;;;;;8.20;3.28;;;29.80;33.60;;;;;;4959664;28;20038;-75
2023/05/30 07:50:38;;;;;;;8.57;3.80;;;30.90;31.80;;;;;;4957431;29;20031;-74
2023/05/30 07:53:03;;;;;;;11.60;3.83;;;31.90;30.20;;;;;;4958533;29;20024;-74
2023/05/30 07:55:29;;;;;;;10.45;3.65;;;32.90;28.30;;;;;;4943549;29;20032;-74
2023/05/30 07:57:54;;;;;;;10.18;3.78;;;33.20;28.10;;;;;;4922071;29;20051;-74
2023/05/30 08:00:20;;;;;;;9.35;3.42;;;33.70;26.80;;;;;;4939444;29;20119;-75
2023/05/30 08:02:46;;;;;;;9.07;3.80;;;33.80;27.30;;;;;;4942393;28;20024;-74
2023/05/30 08:05:11;;;;;;;9.63;3.88;;;34.10;26.30;;;;;;4940973;29;20060;-74
2023/05/30 08:07:37;;;;;;;7.55;3.50;;;34.40;26.50;;;;;;4958318;29;20525;-74
2023/05/30 08:10:03;;;;;;;10.13;3.97;;;34.40;25.80;;;;;;4955233;29;20032;-75
2023/05/30 08:12:29;;;;;;;8.80;3.67;;;34.90;25.60;;;;;;4958226;29;20031;-75
2023/05/30 08:14:56;;;;;;;10.43;4.32;;;35.10;25.00;;;;;;4957885;29;20042;-76
2023/05/30 08:17:23;;;;;;;9.57;3.85;;;35.30;25.20;;;;;;4942359;29;20030;-76
2023/05/30 08:19:52;;;;;;;8.23;3.95;;;35.50;25.00;;;;;;4939149;29;20391;-75
2023/05/30 08:22:21;;;;;;;10.20;3.83;;;35.60;25.40;;;;;;4938934;29;20027;-75
2023/05/30 08:24:59;;;;;;;7.10;3.63;;;35.70;25.00;;;;;;4938744;29;20510;-76
2023/05/30 08:27:25;;;;;;;9.93;3.72;;;36.10;24.20;;;;;;4957878;29;20438;-75
2023/05/30 08:29:50;;;;;;;10.13;3.97;;;36.10;24.40;;;;;;4940739;29;20090;-75
2023/05/30 08:32:17;;;;;;;9.43;4.00;;;36.30;24.10;;;;;;4954910;29;20437;-75
2023/05/30 08:34:45;;;;;;;8.13;3.88;;;36.00;24.40;;;;;;4957680;28;20203;-75
2023/05/30 08:37:11;;;;;;;10.02;4.07;;;36.00;25.00;;;;;;4956808;29;20082;-75
2023/05/30 08:39:37;;;;;;;8.25;3.70;;;36.10;24.60;;;;;;4956736;29;20048;-75
2023/05/30 08:42:04;;;;;;;8.38;3.72;;;36.20;24.20;;;;;;4957733;29;20083;-75
2023/05/30 08:44:30;;;;;;;8.82;3.70;;;36.10;24.20;;;;;;4941090;28;20187;-75
2023/05/30 08:46:56;;;;;;;8.05;3.42;;;36.00;24.60;;;;;;4955520;28;20055;-75
2023/05/30 08:49:23;;;;;;;8.40;4.30;;;36.00;24.70;;;;;;4957674;29;20102;-75
2023/05/30 08:51:50;;;;;;;8.35;3.78;;;35.90;24.50;;;;;;4957445;28;20023;-75
2023/05/30 08:54:21;;;;;;;9.38;4.00;;;35.60;24.20;;;;;;4956708;29;20122;-75
2023/05/30 08:56:51;;;;;;;9.52;3.53;;;35.50;24.80;;;;;;4957572;29;20048;-75
2023/05/30 08:59:20;;;;;;;7.50;3.70;;;35.70;24.90;;;;;;4957597;29;20027;-75
2023/05/30 09:01:49;;;;;;;8.50;3.78;;;35.80;25.20;;;;;;4945384;29;20402;-75
2023/05/30 09:04:15;;;;;;;7.93;3.80;;;36.10;24.90;;;;;;4942285;28;20027;-75
2023/05/30 09:06:42;;;;;;;7.93;3.83;;;36.20;25.10;;;;;;4938330;29;20020;-75
2023/05/30 09:09:09;;;;;;;10.18;4.60;;;36.20;24.70;;;;;;4938310;29;20031;-75
2023/05/30 09:11:35;;;;;;;7.47;3.95;;;36.30;24.60;;;;;;4933437;29;20442;-75
2023/05/30 09:14:01;;;;;;;8.20;3.88;;;36.30;24.40;;;;;;4940460;29;20028;-75
2023/05/30 09:16:27;;;;;;;7.40;3.83;;;36.40;24.80;;;;;;4957120;29;20035;-75
2023/05/30 09:18:52;;;;;;;8.77;3.50;;;36.70;24.70;;;;;;4957601;29;20028;-75
2023/05/30 09:21:19;;;;;;;9.90;3.95;;;36.60;24.00;;;;;;4939590;29;20032;-75
2023/05/30 09:23:46;;;;;;;7.85;3.70;;;36.70;24.80;;;;;;4937602;29;20398;-75
2023/05/30 09:26:14;;;;;;;8.07;3.83;;;36.90;24.80;;;;;;4957192;29;20038;-75
2023/05/30 09:28:43;;;;;;;9.48;3.75;;;36.80;24.40;;;;;;4941514;29;20106;-75
2023/05/30 09:31:10;;;;;;;8.35;3.80;;;36.80;24.30;;;;;;4947910;29;20059;-75
2023/05/30 09:33:46;;;;;;;9.52;4.28;;;36.80;24.80;;;;;;4957097;28;20445;-75
2023/05/30 09:36:24;;;;;;;8.68;3.90;;;37.00;24.50;;;;;;4938691;29;20060;-75
2023/05/30 09:39:06;;;;;;;11.07;4.13;;;37.10;24.40;;;;;;4957265;29;20027;-75
2023/05/30 09:41:32;;;;;;;7.63;4.10;;;36.90;23.70;;;;;;4939949;29;20051;-75
2023/05/30 09:43:59;;;;;;;7.07;3.80;;;36.60;24.90;;;;;;4955797;29;20034;-75
2023/05/30 09:46:29;;;;;;;9.38;3.85;;;37.00;24.60;;;;;;4962041;28;20055;-75
2023/05/30 09:48:55;;;;;;;8.55;4.25;;;37.20;24.80;;;;;;4957467;29;20048;-75
2023/05/30 09:51:25;;;;;;;7.70;4.00;;;37.40;24.10;;;;;;4929340;29;20036;-75
2023/05/30 09:54:01;;;;;;;8.20;3.77;;;37.50;23.80;;;;;;4938083;29;20040;-75
2023/05/30 09:56:37;;;;;;;7.75;4.05;;;37.50;24.60;;;;;;4920631;29;20801;-75
2023/05/30 09:59:10;;;;;;;7.30;4.20;;;37.50;24.60;;;;;;4937869;29;20028;-75
2023/05/30 10:01:42;;;;;;;6.78;4.00;;;37.40;24.50;;;;;;4933528;29;20122;-75
2023/05/30 10:04:12;;;;;;;6.57;3.92;;;37.20;24.70;;;;;;4952967;28;20030;-75
2023/05/30 10:06:52;;;;;;;7.57;3.67;;;37.10;25.20;;;;;;4942066;29;20486;-75
2023/05/30 10:09:20;;;;;;;8.63;4.00;;;37.10;24.80;;;;;;4960548;29;20054;-75
2023/05/30 10:11:46;;;;;;;6.75;3.60;;;37.10;25.30;;;;;;4949249;29;20032;-74
2023/05/30 10:14:13;;;;;;;8.75;3.83;;;36.80;25.10;;;;;;4924013;29;20023;-74
2023/05/30 10:16:58;;;;;;;6.63;4.18;;;36.40;25.40;;;;;;4946490;28;20023;-75
2023/05/30 10:19:29;;;;;;;6.40;3.40;;;36.00;25.90;;;;;;4952549;29;20525;-74
2023/05/30 10:21:55;;;;;;;;;;;35.80;26.10;;;;;;4960578;29;20050;-75
2023/05/30 10:24:21;;;;;;;7.32;3.78;;;35.70;26.80;;;;;;4958823;29;19910;-75
2023/05/30 10:26:53;;;;;;;7.90;3.97;;;35.50;26.40;;;;;;4957622;29;20031;-75
2023/05/30 10:29:22;;;;;;;6.82;3.53;;;35.50;27.10;;;;;;4940927;29;20027;-75
2023/05/30 10:31:51;;;;;;;6.30;2.92;;;35.30;26.40;;;;;;4923317;29;20054;-74
2023/05/30 10:34:20;;;;;;;7.28;3.00;;;34.80;27.50;;;;;;4949754;28;20023;-74
2023/05/30 10:36:47;;;;;;;7.88;3.10;;;34.20;28.10;;;;;;4940656;29;20039;-74
2023/05/30 10:39:40;;;;;;;7.82;3.17;;;33.50;28.70;;;;;;4923629;29;20048;-74
2023/05/30 10:42:18;;;;;;;11.45;3.40;;;32.80;30.10;;;;;;4939308;29;20189;-74
2023/05/30 10:45:10;;;;;;;11.43;3.10;;;32.00;31.00;;;;;;4946388;28;20142;-74
2023/05/30 10:48:03;;;;;;;6.53;2.65;;;31.20;32.00;;;;;;4954110;28;20078;-74
2023/05/30 10:50:42;;;;;;;6.60;3.03;;;30.60;33.10;;;;;;4959727;29;20031;-74
2023/05/30 10:53:15;;;;;;;6.85;2.90;;;30.20;33.90;;;;;;4940493;29;20035;-74
2023/05/30 10:55:43;;;;;;;12.52;3.60;;;29.90;34.30;;;;;;4940412;29;20067;-74
2023/05/30 10:58:53;;;;;;;7.63;2.95;;;29.80;34.10;;;;;;4923060;29;20079;-74
2023/05/30 11:01:26;;;;;;;8.65;3.20;;;29.80;35.20;;;;;;4939710;29;20048;-74
2023/05/30 11:04:11;;;;;;;7.07;3.40;;;29.60;34.90;;;;;;4951288;28;20031;-74
2023/05/30 11:06:46;;;;;;;8.43;3.70;;;29.30;34.80;;;;;;4944491;29;20032;-74
2023/05/30 11:09:15;;;;;;;9.55;3.00;;;29.20;35.10;;;;;;4940268;29;20032;-74
2023/05/30 11:11:43;;;;;;;8.50;2.97;;;28.90;35.40;;;;;;4935521;29;20042;-74
2023/05/30 11:14:14;;;;;;;7.70;3.15;;;28.90;36.40;;;;;;4940053;29;20510;-74
2023/05/30 11:16:56;;;;;;;8.50;3.13;;;28.80;37.30;;;;;;4939724;29;20499;-74
2023/05/30 11:19:39;;;;;;;9.05;3.40;;;28.80;36.80;;;;;;4929253;29;20371;-75
2023/05/30 11:22:17;;;;;;;6.95;2.90;;;28.40;37.30;;;;;;4939903;29;20402;-74
2023/05/30 11:24:43;;;;;;;7.72;3.35;;;28.40;37.30;;;;;;4922998;29;20043;-74
2023/05/30 11:27:14;;;;;;;6.85;2.92;;;28.60;36.70;;;;;;4958822;29;20035;-74
2023/05/30 11:29:51;;;;;;;11.32;3.58;;;28.60;37.30;;;;;;4940809;29;20494;-73
2023/05/30 11:32:23;;;;;;;6.38;2.70;;;28.70;37.90;;;;;;4958736;29;20054;-74
2023/05/30 11:35:02;;;;;;;6.28;2.80;;;28.70;37.50;;;;;;4940024;29;20039;-74
2023/05/30 11:37:31;;;;;;;8.77;2.90;;;28.70;37.20;;;;;;4922446;29;20403;-74
2023/05/30 11:39:58;;;;;;;7.18;2.95;;;28.50;37.20;;;;;;4948106;29;20415;-74
2023/05/30 11:42:27;;;;;;;6.40;2.78;;;28.20;38.50;;;;;;4957527;29;20027;-74
2023/05/30 11:44:53;;;;;;;9.18;3.00;;;28.20;38.50;;;;;;4962316;28;20022;-75
2023/05/30 11:47:19;;;;;;;9.02;3.30;;;28.10;37.90;;;;;;4949064;28;20031;-74
2023/05/30 11:49:53;;;;;;;8.10;3.00;;;28.20;38.40;;;;;;4949092;29;20055;-74
2023/05/30 11:52:19;;;;;;;9.20;3.00;;;28.20;38.30;;;;;;4948861;29;20036;-74
2023/05/30 11:54:46;;;;;;;7.25;3.15;;;28.30;38.00;;;;;;4946061;29;20043;-75
2023/05/30 11:57:16;;;;;;;8.38;2.67;;;28.30;37.90;;;;;;4945985;29;20372;-74
2023/05/30 11:59:44;;;;;;;6.60;2.40;;;28.30;38.50;;;;;;4949210;29;20063;-75
2023/05/30 12:02:10;;;;;;;7.38;2.88;;;28.10;38.40;;;;;;4939143;29;20121;-74
2023/05/30 12:04:40;;;;;;;9.73;3.13;;;28.10;38.70;;;;;;4947908;29;20020;-75
2023/05/30 12:07:09;;;;;;;11.07;3.20;;;28.10;38.30;;;;;;4948828;29;20027;-75
2023/05/30 12:09:41;;;;;;;8.38;2.70;;;28.10;38.50;;;;;;4946279;29;20059;-75
2023/05/30 12:12:07;;;;;;;;;;;27.90;38.50;;;;;;4929868;29;20097;-75
2023/05/30 12:14:53;;;;;;;5.53;2.92;;;27.90;39.40;;;;;;4931788;29;19918;-75
2023/05/30 12:17:24;;;;;;;6.68;2.97;;;27.90;39.00;;;;;;4931279;29;20133;-74
2023/05/30 12:19:55;;;;;;;9.05;3.17;;;27.80;40.70;;;;;;4946523;29;20533;-74
2023/05/30 12:22:21;;;;;;;9.88;2.97;;;27.80;40.10;;;;;;4948828;29;20127;-74
2023/05/30 12:24:49;;;;;;;8.27;2.63;;;27.80;38.70;;;;;;4948411;29;20038;-75
2023/05/30 12:27:19;;;;;;;7.00;2.75;;;27.70;39.30;;;;;;4945353;28;20082;-75
2023/05/30 12:29:45;;;;;;;6.63;2.70;;;27.70;39.50;;;;;;4930664;29;20028;-75
2023/05/30 12:32:11;;;;;;;7.18;3.00;;;27.90;39.30;;;;;;4920503;29;20051;-75
2023/05/30 12:34:45;;;;;;;7.28;3.08;;;27.90;38.90;;;;;;4944263;28;20525;-75
2023/05/30 12:37:15;;;;;;;9.20;3.00;;;28.00;39.70;;;;;;4941095;29;20510;-75
2023/05/30 12:39:50;;;;;;;8.00;3.40;;;28.00;39.30;;;;;;4937414;29;20050;-75
2023/05/30 12:42:38;;;;;;;7.68;3.15;;;28.00;39.70;;;;;;4920994;29;20537;-75
2023/05/30 12:45:06;;;;;;;8.43;2.63;;;27.90;40.20;;;;;;4931798;28;20089;-75
2023/05/30 12:47:37;;;;;;;10.27;3.17;;;27.80;39.40;;;;;;4949204;28;20051;-75
2023/05/30 12:50:03;;;;;;;6.30;2.72;;;27.80;39.20;;;;;;4934964;29;20705;-75
2023/05/30 12:52:29;;;;;;;7.32;2.88;;;27.80;38.90;;;;;;4926103;29;20118;-75
2023/05/30 12:54:56;;;;;;;9.32;3.22;;;27.80;38.70;;;;;;4938628;29;20028;-75
2023/05/30 12:57:26;;;;;;;8.15;2.85;;;27.80;39.10;;;;;;4957338;29;20031;-75
2023/05/30 12:59:55;;;;;;;8.95;3.47;;;27.60;39.40;;;;;;4942012;29;20020;-75
2023/05/30 13:02:24;;;;;;;7.38;2.97;;;27.80;39.90;;;;;;4946989;28;20038;-75
2023/05/30 13:04:51;;;;;;;6.03;2.97;;;27.80;40.40;;;;;;4939488;29;20078;-76
2023/05/30 13:07:18;;;;;;;7.45;2.67;;;27.90;40.10;;;;;;4953765;29;20043;-74
2023/05/30 13:09:44;;;;;;;6.07;2.88;;;27.90;38.50;;;;;;4939477;29;20038;-75
2023/05/30 13:12:10;;;;;;;6.82;2.72;;;27.90;39.70;;;;;;4936106;29;20031;-75
2023/05/30 13:14:36;;;;;;;8.40;2.80;;;27.80;39.50;;;;;;4940376;29;20039;-75
2023/05/30 13:17:03;;;;;;;7.15;3.13;;;27.80;38.50;;;;;;4946032;29;20024;-75
2023/05/30 13:19:29;;;;;;;7.22;2.83;;;27.70;39.60;;;;;;4934851;29;20019;-75
2023/05/30 13:21:55;;;;;;;7.05;2.60;;;27.70;39.30;;;;;;4947701;29;20065;-75
2023/05/30 13:24:20;;;;;;;9.07;2.72;;;27.80;40.80;;;;;;4945415;29;20028;-75
2023/05/30 13:26:46;;;;;;;7.40;3.10;;;27.80;39.60;;;;;;4945544;29;20032;-75
2023/05/30 13:29:12;;;;;;;6.53;3.10;;;27.80;39.80;;;;;;4951780;29;20023;-75
2023/05/30 13:31:37;;;;;;;6.78;2.72;;;27.80;40.00;;;;;;4935768;29;20043;-75
2023/05/30 13:34:03;;;;;;;7.43;2.58;;;27.90;39.40;;;;;;4946609;28;20066;-74
2023/05/30 13:36:29;;;;;;;6.68;2.88;;;28.00;39.40;;;;;;4952986;29;20040;-75
2023/05/30 13:38:56;;;;;;;8.32;2.70;;;28.00;38.90;;;;;;4932829;29;20131;-74
2023/05/30 13:41:22;;;;;;;8.43;2.97;;;27.90;38.50;;;;;;4949736;29;20513;-74
2023/05/30 13:43:48;;;;;;;7.18;2.90;;;27.70;39.10;;;;;;4933852;29;20040;-75
2023/05/30 13:46:14;;;;;;;9.55;2.88;;;27.80;38.70;;;;;;4954743;28;20023;-74
2023/05/30 13:48:40;;;;;;;6.55;2.80;;;27.80;39.30;;;;;;4946825;29;20083;-74
2023/05/30 13:51:06;;;;;;;5.20;2.70;;;27.80;39.60;;;;;;4951813;29;20509;-74
2023/05/30 13:53:32;;;;;;;10.75;3.35;;;27.90;39.20;;;;;;4951949;29;20094;-74
2023/05/30 13:55:58;;;;;;;9.15;2.97;;;27.90;38.30;;;;;;4954993;28;20032;-75
2023/05/30 13:58:24;;;;;;;6.20;3.58;;;27.90;39.10;;;;;;4949678;28;20083;-75
2023/05/30 14:00:49;;;;;;;5.88;2.65;;;27.90;38.90;;;;;;4937938;28;20093;-75
2023/05/30 14:03:15;;;;;;;6.80;2.70;;;27.90;39.90;;;;;;4956501;28;20032;-75
2023/05/30 14:05:41;;;;;;;7.82;3.08;;;28.00;40.00;;;;;;4959347;29;20027;-75
2023/05/30 14:08:06;;;;;;;6.95;2.80;;;28.00;38.20;;;;;;4964048;28;20040;-75
2023/05/30 14:10:32;;;;;;;5.00;2.67;;;28.10;39.30;;;;;;4930710;29;20020;-76
2023/05/30 14:12:58;;;;;;;7.65;3.17;;;28.00;38.40;;;;;;4950042;29;20032;-75
2023/05/30 14:15:24;;;;;;;6.82;3.13;;;27.90;39.00;;;;;;4942677;29;20038;-76
2023/05/30 14:17:51;;;;;;;7.05;2.75;;;27.80;39.30;;;;;;4976450;28;20031;-76
2023/05/30 14:20:17;;;;;;;7.70;2.80;;;27.80;39.70;;;;;;4979392;28;20014;-75
2023/05/30 14:22:42;;;;;;;7.28;3.45;;;27.80;39.20;;;;;;4959752;28;20067;-75
2023/05/30 14:25:08;;;;;;;8.35;2.63;;;27.80;40.40;;;;;;4942158;29;20042;-76
2023/05/30 14:27:35;;;;;;;8.02;3.30;;;27.60;38.90;;;;;;4951389;28;20146;-76
2023/05/30 14:30:02;;;;;;;8.63;3.10;;;27.40;39.10;;;;;;4923512;29;20031;-76
2023/05/30 14:32:28;;;;;;;6.75;2.47;;;27.50;40.10;;;;;;4937801;29;20055;-76
2023/05/30 14:34:53;;;;;;;10.07;2.60;;;27.60;39.00;;;;;;4920322;29;20403;-75
2023/05/30 14:37:19;;;;;;;8.82;3.47;;;27.70;39.10;;;;;;4934204;29;20028;-76
2023/05/30 14:39:45;;;;;;;9.30;2.83;;;27.70;39.20;;;;;;4902710;29;20033;-76
2023/05/30 14:42:11;;;;;;;6.57;2.80;;;27.70;39.70;;;;;;4916924;29;20085;-75
2023/05/30 14:44:36;;;;;;;11.20;3.15;;;27.80;38.80;;;;;;4912262;29;20112;-75
2023/05/30 14:47:02;;;;;;;8.15;2.53;;;27.80;38.30;;;;;;4913693;29;20032;-76
2023/05/30 14:49:28;;;;;;;6.68;3.33;;;27.60;38.40;;;;;;4911437;29;20440;-76
2023/05/30 14:51:55;;;;;;;7.95;2.97;;;27.60;39.30;;;;;;4916988;29;20032;-76
2023/05/30 14:54:21;;;;;;;7.32;3.25;;;27.60;38.20;;;;;;4921693;29;20063;-76
2023/05/30 14:56:47;;;;;;;7.43;2.75;;;27.70;38.10;;;;;;4925628;29;20055;-76
2023/05/30 14:59:14;;;;;;;7.53;2.70;;;27.70;37.10;;;;;;4929405;29;20510;-75
2023/05/30 15:01:39;;;;;;;9.60;2.90;;;27.70;39.00;;;;;;4911068;29;20028;-76
2023/05/30 15:04:05;;;;;;;6.13;3.00;;;27.60;38.40;;;;;;4922808;29;20040;-76
2023/05/30 15:06:32;;;;;;;6.20;2.90;;;27.60;38.50;;;;;;4915537;29;20083;-76
2023/05/30 15:08:57;;;;;;;8.23;3.00;;;27.60;38.50;;;;;;4940150;29;20038;-75
2023/05/30 15:11:23;;;;;;;5.00;2.65;;;27.60;38.20;;;;;;4927177;29;20450;-76
2023/05/30 15:13:50;;;;;;;6.50;2.40;;;27.50;38.40;;;;;;4925234;28;20047;-76
2023/05/30 15:16:15;;;;;;;6.40;2.67;;;27.40;38.00;;;;;;4903935;29;20511;-76
2023/05/30 15:18:41;;;;;;;8.68;2.60;;;27.20;38.30;;;;;;4918088;29;20212;-76
2023/05/30 15:21:07;;;;;;;7.25;2.80;;;27.10;38.60;;;;;;4914554;29;20039;-76
2023/05/30 15:23:32;;;;;;;8.18;2.88;;;27.10;39.00;;;;;;4910368;29;20033;-75
2023/05/30 15:25:58;;;;;;;8.93;2.92;;;26.80;39.30;;;;;;4917402;29;20103;-75
2023/05/30 15:28:24;;;;;;;6.78;2.50;;;26.80;39.10;;;;;;4914752;29;20040;-75
2023/05/30 15:30:49;;;;;;;8.18;3.10;;;27.00;39.60;;;;;;4920771;29;20408;-75
2023/05/30 15:33:15;;;;;;;8.32;2.90;;;27.10;40.80;;;;;;4932839;29;20035;-75
2023/05/30 15:35:41;;;;;;;6.20;2.53;;;27.30;39.70;;;;;;4948459;28;20034;-76
2023/05/30 15:38:06;;;;;;;7.38;2.85;;;27.30;39.20;;;;;;4947594;29;20846;-75
2023/05/30 15:40:32;;;;;;;8.88;3.15;;;27.30;38.20;;;;;;4948020;29;20077;-75
2023/05/30 15:42:58;;;;;;;6.63;2.33;;;27.20;37.60;;;;;;4949612;29;20024;-75
2023/05/30 15:45:23;;;;;;;7.15;3.05;;;27.20;38.20;;;;;;4945535;29;20881;-75
2023/05/30 15:47:52;;;;;;;6.38;2.80;;;27.10;38.60;;;;;;4950905;29;20501;-75
2023/05/30 15:50:17;;;;;;;7.53;2.45;;;27.00;38.60;;;;;;4948150;29;20028;-73
2023/05/30 15:52:43;;;;;;;7.07;2.63;;;26.90;38.30;;;;;;4930872;29;20042;-74
2023/05/30 15:55:09;;;;;;;6.00;2.67;;;27.00;39.00;;;;;;4948633;29;20043;-74
2023/05/30 15:57:35;;;;;;;8.20;3.00;;;27.00;38.90;;;;;;4941090;29;20090;-75
2023/05/30 16:00:01;;;;;;;5.35;2.60;;;27.00;38.30;;;;;;4951663;29;20435;-75
2023/05/30 16:02:26;;;;;;;7.68;2.67;;;27.00;38.40;;;;;;4945358;28;20102;-75
2023/05/30 16:04:52;;;;;;;6.78;2.50;;;26.90;39.50;;;;;;4958252;29;20038;-75
2023/05/30 16:07:18;;;;;;;9.07;2.53;;;27.00;39.90;;;;;;4957446;29;20106;-75
2023/05/30 16:09:44;;;;;;;5.25;2.50;;;26.90;40.00;;;;;;4941311;29;20045;-75
2023/05/30 16:12:10;;;;;;;8.15;3.03;;;26.90;39.30;;;;;;4958414;29;20398;-76
2023/05/30 16:14:36;;;;;;;6.93;2.50;;;26.80;40.10;;;;;;4940099;29;20058;-76
2023/05/30 16:17:02;;;;;;;8.10;2.72;;;26.80;39.60;;;;;;4958088;29;20031;-76
2023/05/30 16:19:28;;;;;;;6.22;2.70;;;26.80;40.30;;;;;;4940315;29;20027;-75
2023/05/30 16:21:54;;;;;;;8.95;2.42;;;26.90;40.40;;;;;;4939850;29;20064;-75
2023/05/30 16:24:20;;;;;;;8.10;2.88;;;26.80;40.60;;;;;;4947353;28;20028;-75
2023/05/30 16:26:46;;;;;;;7.55;2.97;;;26.70;41.00;;;;;;4940970;29;20027;-75
2023/05/30 16:29:12;;;;;;;5.82;2.70;;;26.80;41.00;;;;;;4950658;29;20055;-76
2023/05/30 16:31:38;;;;;;;9.00;2.65;;;26.70;41.20;;;;;;4925106;28;20055;-75
2023/05/30 16:34:03;;;;;;;9.23;3.00;;;26.60;41.20;;;;;;4921230;29;20423;-76
2023/05/30 16:36:30;;;;;;;6.80;2.47;;;26.60;41.20;;;;;;4917168;29;20051;-76
2023/05/30 16:38:56;;;;;;;11.68;3.33;;;26.50;41.70;;;;;;4935610;29;20027;-76
2023/05/30 16:41:22;;;;;;;10.18;2.95;;;26.40;41.50;;;;;;4936110;29;20599;-76
2023/05/30 16:43:49;;;;;;;7.85;2.90;;;26.40;41.70;;;;;;4929946;29;20036;-76
2023/05/30 16:46:15;;;;;;;6.95;2.80;;;26.30;41.70;;;;;;4923600;29;20543;-76
2023/05/30 16:48:41;;;;;;;6.75;2.80;;;26.30;41.80;;;;;;4918410;29;20036;-75
2023/05/30 16:51:08;;;;;;;7.82;3.20;;;26.40;42.20;;;;;;4913522;29;20031;-75
2023/05/30 16:53:34;;;;;;;7.18;2.80;;;26.50;42.10;;;;;;4904591;29;20462;-75
2023/05/30 16:56:02;;;;;;;10.20;2.70;;;26.50;42.30;;;;;;4910985;29;20023;-75
2023/05/30 16:58:28;;;;;;;10.45;3.22;;;26.30;42.20;;;;;;4951912;29;20036;-76
2023/05/30 17:00:54;;;;;;;9.85;3.50;;;26.30;42.10;;;;;;4919589;29;20036;-76
2023/05/30 17:03:20;;;;;;;7.95;2.97;;;26.30;41.50;;;;;;4938208;29;20099;-76
2023/05/30 17:05:46;;;;;;;7.30;2.97;;;26.20;42.00;;;;;;4930319;29;20752;-81
2023/05/30 17:08:12;;;;;;;7.28;2.83;;;26.00;42.30;;;;;;4909829;29;20427;-76
2023/05/30 17:10:38;;;;;;;12.13;3.50;;;26.00;42.70;;;;;;4911881;29;20065;-75
2023/05/30 17:13:03;;;;;;;9.05;3.20;;;25.90;42.50;;;;;;4915517;29;20033;-75
2023/05/30 17:15:29;;;;;;;11.45;3.10;;;25.90;42.90;;;;;;4915785;29;20118;-75
2023/05/30 17:17:55;;;;;;;8.15;3.13;;;25.90;42.70;;;;;;4939659;29;20084;-76